createdAt,value
2023-01-25T06:26:48.428Z,22.68
2023-01-25T06:29:16.257Z,23.08
2023-01-25T06:31:43.912Z,23.43
2023-01-25T06:34:11.632Z,23.02
2023-01-25T06:36:39.157Z,22.31
2023-01-25T06:39:06.912Z,23.41
2023-01-25T06:41:34.462Z,23.44
2023-01-25T06:44:03.377Z,22.89
2023-01-25T06:46:32.954Z,21.96
2023-01-25T06:49:00.583Z,22.28
2023-01-25T06:51:28.141Z,22.99
2023-01-25T06:53:55.814Z,23.75
2023-01-25T06:56:23.400Z,23.10
2023-01-25T06:58:51.056Z,22.52
2023-01-25T07:01:27.072Z,23.03
2023-01-25T07:03:57.090Z,22.65
2023-01-25T07:06:25.715Z,23.77
2023-01-25T07:08:53.316Z,21.98
2023-01-25T07:11:21.190Z,22.71
2023-01-25T07:13:48.904Z,23.24
2023-01-25T07:16:19.272Z,22.09
2023-01-25T07:18:47.563Z,22.53
2023-01-25T07:21:22.799Z,23.96
2023-01-25T07:23:53.518Z,22.82
2023-01-25T07:26:26.272Z,22.68
2023-01-25T07:28:55.957Z,23.10
2023-01-25T07:31:23.900Z,23.00
2023-01-25T07:33:56.823Z,22.25
2023-01-25T07:36:25.514Z,22.78
2023-01-25T07:38:54.889Z,21.55
2023-01-25T07:41:24.697Z,21.05
2023-01-25T07:43:53.176Z,21.59
2023-01-25T07:46:35.286Z,20.72
2023-01-25T07:49:02.893Z,20.71
2023-01-25T07:51:31.103Z,20.72
2023-01-25T07:54:01.419Z,21.42
2023-01-25T07:56:35.046Z,22.76
2023-01-25T07:59:02.918Z,22.44
2023-01-25T08:01:34.567Z,23.75
2023-01-25T08:04:03.439Z,21.19
2023-01-25T08:06:38.776Z,21.93
2023-01-25T08:09:12.108Z,20.92
2023-01-25T08:11:41.500Z,22.63
2023-01-25T08:14:09.236Z,21.35
2023-01-25T08:16:37.045Z,21.18
2023-01-25T08:19:04.720Z,21.52
2023-01-25T08:21:34.400Z,21.14
2023-01-25T08:24:05.588Z,21.45
2023-01-25T08:26:34.684Z,18.63
2023-01-25T08:29:02.802Z,19.09
2023-01-25T08:31:33.748Z,20.54
2023-01-25T08:34:01.746Z,19.86
2023-01-25T08:36:29.605Z,20.07
2023-01-25T08:38:59.873Z,20.08
2023-01-25T08:41:29.584Z,20.58
2023-01-25T08:43:57.446Z,18.26
2023-01-25T08:46:30.136Z,19.02
2023-01-25T08:49:01.169Z,18.49
2023-01-25T08:51:31.302Z,20.07
2023-01-25T08:54:12.383Z,19.78
2023-01-25T08:56:41.341Z,18.82
2023-01-25T08:59:13.842Z,19.96
2023-01-25T09:01:41.566Z,19.21
2023-01-25T09:04:09.388Z,20.60
2023-01-25T09:06:37.553Z,20.98
2023-01-25T09:09:05.319Z,21.29
2023-01-25T09:11:34.824Z,21.54
2023-01-25T09:14:02.868Z,20.06
2023-01-25T09:16:30.701Z,21.31
2023-01-25T09:19:00.613Z,21.86
2023-01-25T09:21:29.291Z,19.85
2023-01-25T09:24:06.642Z,21.49
2023-01-25T09:26:40.854Z,19.38
2023-01-25T09:29:10.903Z,18.66
2023-01-25T09:31:40.677Z,19.54
2023-01-25T09:34:27.659Z,18.92
2023-01-25T09:36:55.324Z,19.89
2023-01-25T09:39:23.084Z,18.81
2023-01-25T09:42:16.054Z,17.92
2023-01-25T09:44:56.617Z,19.33
2023-01-25T09:47:36.671Z,19.37
2023-01-25T09:50:34.769Z,19.63
2023-01-25T09:53:21.703Z,18.98
2023-01-25T09:56:02.357Z,18.35
2023-01-25T09:58:37.275Z,18.36
2023-01-25T10:01:39.032Z,18.56
2023-01-25T10:04:25.974Z,19.31
2023-01-25T10:07:01.582Z,19.16
2023-01-25T10:09:53.292Z,19.39
2023-01-25T10:12:24.007Z,19.30
2023-01-25T10:14:52.947Z,20.00
2023-01-25T10:17:38.564Z,20.67
2023-01-25T10:20:20.319Z,19.05
2023-01-25T10:23:19.419Z,19.66
2023-01-25T10:25:59.438Z,19.80
2023-01-25T10:28:41.124Z,18.78
2023-01-25T10:31:16.856Z,18.98
2023-01-25T10:33:47.087Z,19.46
2023-01-25T10:36:21.664Z,19.29
2023-01-25T10:38:50.359Z,19.21
2023-01-25T10:41:36.472Z,18.36
2023-01-25T10:44:24.820Z,19.51
2023-01-25T10:47:01.193Z,19.08
2023-01-25T10:49:42.535Z,19.33
2023-01-25T10:52:22.241Z,19.29
2023-01-25T10:55:02.703Z,19.46
2023-01-25T10:57:31.100Z,19.28
2023-01-25T11:00:02.601Z,20.45
2023-01-25T11:02:44.627Z,19.78
2023-01-25T11:05:35.151Z,20.36
2023-01-25T11:08:20.378Z,19.98
2023-01-25T11:10:51.468Z,20.27
2023-01-25T11:13:19.569Z,20.36
2023-01-25T11:15:50.826Z,20.45
2023-01-25T11:18:20.509Z,21.25
2023-01-25T11:20:48.734Z,23.97
2023-01-25T11:23:24.312Z,22.69
2023-01-25T11:25:52.552Z,22.34
2023-01-25T11:28:21.783Z,21.52
2023-01-25T11:30:53.553Z,20.29
2023-01-25T11:33:22.287Z,21.35
2023-01-25T11:36:04.662Z,21.81
2023-01-25T11:38:32.378Z,22.67
2023-01-25T11:41:26.937Z,20.12
2023-01-25T11:44:05.195Z,19.25
2023-01-25T11:46:45.890Z,19.16
2023-01-25T11:49:27.526Z,20.19
2023-01-25T11:52:17.002Z,18.34
2023-01-25T11:55:13.524Z,18.28
2023-01-25T11:57:56.343Z,18.31
2023-01-25T12:00:48.485Z,18.58
2023-01-25T12:03:30.871Z,18.89
2023-01-25T12:06:13.433Z,19.19
2023-01-25T12:08:53.111Z,19.55
2023-01-25T12:11:38.752Z,18.93
2023-01-25T12:14:27.286Z,17.75
2023-01-25T12:17:12.725Z,18.61
2023-01-25T12:19:59.176Z,17.70
2023-01-25T12:22:59.141Z,17.95
2023-01-25T12:25:41.671Z,18.02
2023-01-25T12:28:13.893Z,18.23
2023-01-25T12:30:57.796Z,17.91
2023-01-25T12:33:34.197Z,19.09
2023-01-25T12:36:11.875Z,18.68
2023-01-25T12:38:57.557Z,18.23
2023-01-25T12:42:02.505Z,19.66
2023-01-25T12:44:42.469Z,19.18
2023-01-25T12:47:10.565Z,19.32
2023-01-25T12:49:52.054Z,18.61
2023-01-25T12:52:44.970Z,18.99
2023-01-25T12:55:14.469Z,19.17
2023-01-25T12:57:47.617Z,19.53
2023-01-25T13:00:36.877Z,19.52
2023-01-25T13:03:12.348Z,19.76
2023-01-25T13:05:40.623Z,19.46
2023-01-25T13:08:47.116Z,20.00
2023-01-25T13:11:23.962Z,18.94
2023-01-25T13:13:51.777Z,19.02
2023-01-25T13:16:41.444Z,18.96
2023-01-25T13:19:20.620Z,18.16
2023-01-25T13:21:50.485Z,18.02
2023-01-25T13:24:25.877Z,17.89
2023-01-25T13:26:53.312Z,18.43
2023-01-25T13:29:36.011Z,18.10
2023-01-25T13:32:11.766Z,19.32
2023-01-25T13:34:42.594Z,18.76
2023-01-25T13:37:33.739Z,18.77
2023-01-25T13:40:06.332Z,17.54
2023-01-25T13:42:36.784Z,18.47
2023-01-25T13:45:18.620Z,19.02
2023-01-25T13:48:09.078Z,20.18
2023-01-25T13:50:40.234Z,18.98
2023-01-25T13:53:16.835Z,18.96
2023-01-25T13:55:47.297Z,18.17
2023-01-25T13:58:18.371Z,17.63
2023-01-25T14:01:06.793Z,18.70
2023-01-25T14:03:36.046Z,17.87
2023-01-25T14:06:04.415Z,18.44
2023-01-25T14:08:32.481Z,18.66
2023-01-25T14:11:00.482Z,18.62
2023-01-25T14:13:28.052Z,18.53
2023-01-25T14:16:04.426Z,17.48
2023-01-25T14:18:34.195Z,17.96
2023-01-25T14:21:15.678Z,17.81
2023-01-25T14:23:43.694Z,19.11
2023-01-25T14:26:19.050Z,17.98
2023-01-25T14:28:59.295Z,18.26
2023-01-25T14:31:36.573Z,19.27
2023-01-25T14:34:05.043Z,19.89
2023-01-25T14:36:37.178Z,18.35
2023-01-25T14:39:16.830Z,17.83
2023-01-25T14:41:59.850Z,18.35
2023-01-25T14:44:29.653Z,18.29
2023-01-25T14:47:26.988Z,18.85
2023-01-25T14:50:48.456Z,19.42
2023-01-25T14:53:19.305Z,18.95
2023-01-25T14:55:48.231Z,18.90
2023-01-25T14:58:18.967Z,19.80
2023-01-25T15:01:00.625Z,19.21
2023-01-25T15:03:31.214Z,19.19
2023-01-25T15:06:04.560Z,19.15
2023-01-25T15:08:39.216Z,18.85
2023-01-25T15:11:44.146Z,19.92
2023-01-25T15:14:21.537Z,18.71
2023-01-25T15:16:49.156Z,19.02
2023-01-25T15:19:35.330Z,18.65
2023-01-25T15:22:05.143Z,18.80
2023-01-25T15:24:32.903Z,19.26
2023-01-25T15:27:00.435Z,19.21
2023-01-25T15:29:28.065Z,19.09
2023-01-25T15:31:56.375Z,18.16
2023-01-25T15:34:32.492Z,18.18
2023-01-25T15:37:00.128Z,17.70
2023-01-25T15:39:28.732Z,19.18
2023-01-25T15:41:56.529Z,18.61
2023-01-25T15:44:24.013Z,18.44
2023-01-25T15:46:52.078Z,18.10
2023-01-25T15:49:27.830Z,17.43
2023-01-25T15:51:56.280Z,18.02
2023-01-25T15:54:24.539Z,19.44
2023-01-25T15:56:56.100Z,19.06
2023-01-25T15:59:24.061Z,19.71
2023-01-25T16:01:51.921Z,18.32
2023-01-25T16:04:19.489Z,18.50
2023-01-25T16:06:54.052Z,18.98
2023-01-25T16:09:29.922Z,18.48
2023-01-25T16:12:00.570Z,18.92
2023-01-25T16:14:31.321Z,18.57
2023-01-25T16:17:05.453Z,18.80
2023-01-25T16:19:33.873Z,18.01
2023-01-25T16:22:01.564Z,18.36
2023-01-25T16:24:29.282Z,18.05
2023-01-25T16:26:58.963Z,18.84
2023-01-25T16:29:27.105Z,18.69
2023-01-25T16:31:55.126Z,18.27
2023-01-25T16:34:23.451Z,18.23
2023-01-25T16:36:51.236Z,18.56
2023-01-25T16:39:22.453Z,18.12
2023-01-25T16:41:50.866Z,18.28
2023-01-25T16:44:18.907Z,18.21
2023-01-25T16:46:50.354Z,18.67
2023-01-25T16:49:21.364Z,18.05
2023-01-25T16:51:50.219Z,18.63
2023-01-25T16:54:22.286Z,18.19
2023-01-25T16:56:51.099Z,18.75
2023-01-25T16:59:19.849Z,18.38
2023-01-25T17:01:48.256Z,17.90
2023-01-25T17:04:17.319Z,18.38
2023-01-25T17:06:47.714Z,19.01
2023-01-25T17:09:23.622Z,18.47
2023-01-25T17:11:53.872Z,18.22
2023-01-25T17:14:23.182Z,18.79
2023-01-25T17:16:53.691Z,18.80
2023-01-25T17:19:21.642Z,18.93
2023-01-25T17:21:49.205Z,18.68
2023-01-25T17:24:19.509Z,20.16
2023-01-25T17:26:47.254Z,19.45
2023-01-25T17:29:15.072Z,19.42
2023-01-25T17:31:46.714Z,19.00
2023-01-25T17:34:18.160Z,19.65
2023-01-25T17:36:46.277Z,18.94
2023-01-25T17:39:15.683Z,18.55
2023-01-25T17:41:45.021Z,18.90
2023-01-25T17:44:13.905Z,18.43
2023-01-25T17:46:41.660Z,19.08
2023-01-25T17:49:16.939Z,18.47
2023-01-25T17:51:45.409Z,18.45
2023-01-25T17:54:13.422Z,19.20
2023-01-25T17:56:41.315Z,19.35
2023-01-25T17:59:11.389Z,19.08
2023-01-25T18:01:42.507Z,18.48
2023-01-25T18:04:10.928Z,18.84
2023-01-25T18:06:39.511Z,18.87
2023-01-25T18:09:07.579Z,18.89
2023-01-25T18:11:37.892Z,18.76
2023-01-25T18:14:09.013Z,19.00
2023-01-25T18:16:39.356Z,18.97
2023-01-25T18:19:07.972Z,18.79
2023-01-25T18:21:36.485Z,19.29
2023-01-25T18:24:27.244Z,18.37
2023-01-25T18:27:01.963Z,18.68
2023-01-25T18:30:21.967Z,19.33
2023-01-25T18:32:49.815Z,19.84
2023-01-25T18:35:17.287Z,19.16
2023-01-25T18:37:46.557Z,19.34
2023-01-25T18:40:16.867Z,18.96
2023-01-25T18:42:45.761Z,18.93
2023-01-25T18:45:16.248Z,18.68
2023-01-25T18:47:43.981Z,19.27
2023-01-25T18:50:14.245Z,18.83
2023-01-25T18:52:42.401Z,18.94
2023-01-25T18:55:12.200Z,19.46
2023-01-25T18:57:40.308Z,19.43
2023-01-25T19:00:11.060Z,18.90
2023-01-25T19:02:40.620Z,19.06
2023-01-25T19:05:09.319Z,19.08
2023-01-25T19:07:37.491Z,19.71
2023-01-25T19:10:06.207Z,19.54
2023-01-25T19:12:34.766Z,20.95
2023-01-25T19:15:02.821Z,19.55
2023-01-25T19:17:32.198Z,19.88
2023-01-25T19:20:02.237Z,19.81
2023-01-25T19:22:31.318Z,19.34
2023-01-25T19:25:02.255Z,19.59
2023-01-25T19:27:30.159Z,19.57
2023-01-25T19:29:59.718Z,19.60
2023-01-25T19:32:27.569Z,19.11
2023-01-25T19:34:55.512Z,20.25
2023-01-25T19:37:23.391Z,19.98
2023-01-25T19:39:53.021Z,19.90
2023-01-25T19:42:20.928Z,19.83
2023-01-25T19:44:48.921Z,19.54
2023-01-25T19:47:16.795Z,19.65
2023-01-25T19:49:45.682Z,19.44
2023-01-25T19:52:14.769Z,19.52
2023-01-25T19:54:42.715Z,19.52
2023-01-25T19:57:11.249Z,19.46
2023-01-25T19:59:39.169Z,19.83
2023-01-25T20:02:11.486Z,19.32
2023-01-25T20:04:39.290Z,19.64
2023-01-25T20:07:07.086Z,19.54
2023-01-25T20:09:34.921Z,20.66
2023-01-25T20:12:07.827Z,20.34
2023-01-25T20:14:36.430Z,20.72
2023-01-25T20:17:06.063Z,19.93
2023-01-25T20:19:35.259Z,19.86
2023-01-25T20:22:04.575Z,20.18
2023-01-25T20:24:32.656Z,19.95
2023-01-25T20:27:02.816Z,19.78
2023-01-25T20:29:32.148Z,19.87
2023-01-25T20:31:59.886Z,19.62
2023-01-25T20:34:27.746Z,19.76
2023-01-25T20:36:55.396Z,19.44
2023-01-25T20:39:23.218Z,19.99
2023-01-25T20:41:56.660Z,19.43
2023-01-25T20:44:24.511Z,19.30
2023-01-25T20:46:52.396Z,19.78
2023-01-25T20:49:20.352Z,19.83
2023-01-25T20:51:48.355Z,21.34
2023-01-25T20:54:18.126Z,20.73
2023-01-25T20:56:50.466Z,20.07
2023-01-25T20:59:19.293Z,19.71
2023-01-25T21:01:47.596Z,20.67
2023-01-25T21:04:15.501Z,20.55
2023-01-25T21:06:43.887Z,19.87
2023-01-25T21:09:12.552Z,20.02
2023-01-25T21:11:40.788Z,19.79
2023-01-25T21:14:08.643Z,19.62
2023-01-25T21:16:36.559Z,20.33
2023-01-25T21:19:06.478Z,19.93
2023-01-25T21:21:34.879Z,19.91
2023-01-25T21:24:05.231Z,20.85
2023-01-25T21:26:34.887Z,20.76
2023-01-25T21:29:04.876Z,20.36
2023-01-25T21:31:35.266Z,20.52
2023-01-25T21:34:04.251Z,19.95
2023-01-25T21:36:32.391Z,20.12
2023-01-25T21:39:00.365Z,20.16
2023-01-25T21:41:30.524Z,19.74
2023-01-25T21:44:17.839Z,19.57
2023-01-25T21:47:12.493Z,19.58
2023-01-25T21:49:54.077Z,19.57
2023-01-25T21:52:21.609Z,20.06
2023-01-25T21:54:49.878Z,19.79
2023-01-25T21:57:17.506Z,19.91
2023-01-25T21:59:47.007Z,20.38
2023-01-25T22:02:15.170Z,21.03
2023-01-25T22:04:43.046Z,20.27
2023-01-25T22:07:10.979Z,20.63
2023-01-25T22:09:38.588Z,20.29
2023-01-25T22:12:06.197Z,20.35
2023-01-25T22:14:34.786Z,20.21
2023-01-25T22:17:03.241Z,19.79
2023-01-25T22:19:30.884Z,19.60
2023-01-25T22:21:58.430Z,20.13
2023-01-25T22:24:26.236Z,19.44
2023-01-25T22:27:24.141Z,19.04
2023-01-25T22:29:52.215Z,19.80
2023-01-25T22:32:19.945Z,20.15
2023-01-25T22:34:49.397Z,19.34
2023-01-25T22:37:16.879Z,21.52
2023-01-25T22:39:45.518Z,20.25
2023-01-25T22:42:13.041Z,19.44
2023-01-25T22:44:40.599Z,19.91
2023-01-25T22:47:08.053Z,19.32
2023-01-25T22:49:36.194Z,19.66
2023-01-25T22:52:03.879Z,19.62
2023-01-25T22:54:31.503Z,19.49
2023-01-25T22:57:00.581Z,19.98
2023-01-25T22:59:28.162Z,19.99
2023-01-25T23:01:55.680Z,20.08
2023-01-25T23:04:23.219Z,19.95
2023-01-25T23:07:02.729Z,19.66
2023-01-25T23:09:30.730Z,19.40
2023-01-25T23:11:58.301Z,19.42
2023-01-25T23:14:44.174Z,19.88
2023-01-25T23:17:30.004Z,20.41
2023-01-25T23:19:59.638Z,19.79
2023-01-25T23:22:27.858Z,19.70
2023-01-25T23:24:55.361Z,19.78
2023-01-25T23:27:22.895Z,19.44
2023-01-25T23:29:51.769Z,19.67
2023-01-25T23:32:19.923Z,19.99
2023-01-25T23:34:53.089Z,19.26
2023-01-25T23:37:22.079Z,19.85
2023-01-25T23:39:50.438Z,19.92
2023-01-25T23:42:18.629Z,20.04
2023-01-25T23:44:46.350Z,20.24
2023-01-25T23:47:13.916Z,20.25
2023-01-25T23:49:43.858Z,19.86
2023-01-25T23:52:12.602Z,20.11
2023-01-25T23:54:40.126Z,19.76
2023-01-25T23:57:08.238Z,19.75
2023-01-25T23:59:36.285Z,19.61
